Terminal Aerodrome Forecast
Issued by NWS

Current Version | Previous Version | Text Only | Print | Product List | Glossary On
Versions: 1 2 3 4 5 6 7 8 9 10 11 12
670
FTUS41 KBTV 222330
TAFRUT
TAF
KRUT 222330Z 2300/2324 17012KT 5SM -SHRA BKN040
      TEMPO 2300/2302 22018G30KT 2SM +TSRA OVC015CB
     FM230300 21006KT P6SM -SHRA SCT020 OVC030
     FM230700 22008KT P6SM VCSH BKN020 BKN030
     FM231100 26008KT P6SM FEW030 SCT060=

USA.gov is the U.S. government's official web portal to all federal, state and local government web resources and services.